Time;durP1;ratioP1;P1;durP2;ratioP2;P2;SDS_P1;SDS_P2;PMS_P1;PMS_P2;Temp;Humidity;BMP_temperature;BMP_pressure;BME280_temperature;BME280_humidity;BME280_pressure;Samples;Min_cycle;Max_cycle;Signal;HPM_P1;HPM_P2
2022/07/14 00:01:38;;;;;;;6.53;2.90;;;23.60;54.40;;;;;;5088841;28;20558;-73
2022/07/14 00:04:05;;;;;;;7.70;2.90;;;23.70;54.20;;;;;;5078875;28;20213;-71
2022/07/14 00:06:32;;;;;;;3.40;2.80;;;23.70;54.20;;;;;;5089911;28;20419;-73
2022/07/14 00:08:57;;;;;;;4.80;2.80;;;23.60;54.60;;;;;;5083712;28;20428;-73
2022/07/14 00:11:24;;;;;;;3.50;2.57;;;23.70;54.00;;;;;;5083967;28;20417;-73
2022/07/14 00:13:50;;;;;;;3.10;2.40;;;23.60;53.40;;;;;;5085611;28;20586;-73
2022/07/14 00:16:16;;;;;;;8.40;2.80;;;23.60;54.00;;;;;;5090433;28;20420;-73
2022/07/14 00:18:44;;;;;;;3.80;2.73;;;23.60;53.40;;;;;;5077423;28;20185;-72
2022/07/14 00:21:14;;;;;;;6.30;2.57;;;23.70;53.30;;;;;;5085604;28;20282;-74
2022/07/14 00:23:41;;;;;;;2.70;2.50;;;23.70;53.60;;;;;;5078173;28;20454;-72
2022/07/14 00:26:07;;;;;;;4.50;2.90;;;23.60;53.70;;;;;;5086638;28;20415;-73
2022/07/14 00:28:33;;;;;;;4.90;2.90;;;23.60;54.40;;;;;;5078188;28;20493;-73
2022/07/14 00:31:03;;;;;;;4.60;2.50;;;23.50;54.80;;;;;;5086089;28;20793;-73
2022/07/14 00:33:30;;;;;;;4.03;3.00;;;23.50;55.20;;;;;;5084054;28;20456;-72
2022/07/14 00:35:56;;;;;;;3.43;2.70;;;23.30;55.60;;;;;;5086837;28;20790;-73
2022/07/14 00:38:22;;;;;;;6.10;3.10;;;23.20;56.00;;;;;;5086350;28;20424;-72
2022/07/14 00:40:47;;;;;;;4.67;2.47;;;23.20;56.10;;;;;;5088210;28;20858;-72
2022/07/14 00:43:13;;;;;;;4.50;2.90;;;23.20;56.20;;;;;;5083417;28;20644;-72
2022/07/14 00:45:39;;;;;;;3.10;2.27;;;23.10;56.00;;;;;;5078779;28;20185;-72
2022/07/14 00:48:06;;;;;;;3.00;2.17;;;23.10;55.80;;;;;;5086703;28;20614;-72
2022/07/14 00:50:32;;;;;;;4.00;2.90;;;23.00;56.10;;;;;;5065865;28;20176;-71
2022/07/14 00:52:58;;;;;;;5.30;3.10;;;23.00;56.80;;;;;;5089832;28;20462;-72
2022/07/14 00:55:24;;;;;;;6.67;3.50;;;23.00;56.90;;;;;;5085371;28;20426;-72
2022/07/14 00:57:50;;;;;;;10.33;3.07;;;22.80;58.50;;;;;;5089177;28;20639;-72
2022/07/14 01:00:18;;;;;;;7.30;3.60;;;22.60;59.60;;;;;;5076085;28;20227;-72
2022/07/14 01:02:45;;;;;;;10.00;2.90;;;22.50;60.40;;;;;;5086051;28;20433;-72
2022/07/14 01:05:10;;;;;;;7.97;3.60;;;22.60;60.00;;;;;;5074075;28;20518;-72
2022/07/14 01:07:37;;;;;;;6.23;3.30;;;22.50;60.10;;;;;;5089784;28;20445;-72
2022/07/14 01:10:03;;;;;;;5.70;3.40;;;22.20;62.00;;;;;;5059160;28;20271;-71
2022/07/14 01:12:29;;;;;;;5.10;3.37;;;22.30;62.00;;;;;;5090354;28;20435;-71
2022/07/14 01:14:54;;;;;;;6.60;3.90;;;22.30;62.20;;;;;;5080829;28;20947;-72
2022/07/14 01:17:20;;;;;;;8.53;3.80;;;22.30;62.60;;;;;;5071399;28;20441;-72
2022/07/14 01:19:48;;;;;;;5.03;3.53;;;22.20;62.50;;;;;;5068891;28;20200;-73
2022/07/14 01:22:14;;;;;;;6.30;3.10;;;22.00;63.10;;;;;;5083920;28;20207;-73
2022/07/14 01:24:40;;;;;;;5.80;3.40;;;21.90;63.80;;;;;;5085911;28;20514;-72
2022/07/14 01:27:05;;;;;;;4.60;2.87;;;21.90;63.20;;;;;;5078492;28;20516;-72
2022/07/14 01:29:31;;;;;;;8.17;3.47;;;22.00;62.50;;;;;;5083590;28;20182;-73
2022/07/14 01:31:57;;;;;;;5.20;3.23;;;21.90;62.30;;;;;;5088217;28;20657;-73
2022/07/14 01:34:23;;;;;;;5.60;3.20;;;21.90;62.00;;;;;;5083251;28;20676;-73
2022/07/14 01:36:49;;;;;;;5.53;2.73;;;21.90;62.00;;;;;;5077691;28;20518;-73
2022/07/14 01:39:15;;;;;;;4.70;3.03;;;21.90;62.00;;;;;;5089267;28;20671;-72
2022/07/14 01:41:40;;;;;;;7.53;3.50;;;21.80;62.00;;;;;;5088395;28;20218;-73
2022/07/14 01:44:06;;;;;;;4.10;2.73;;;21.70;61.90;;;;;;5074179;28;20201;-72
2022/07/14 01:46:32;;;;;;;2.90;2.33;;;21.70;62.00;;;;;;5079883;28;20196;-74
2022/07/14 01:48:58;;;;;;;4.27;2.73;;;21.60;61.90;;;;;;5086826;28;20210;-73
2022/07/14 01:51:24;;;;;;;3.60;2.20;;;21.60;61.70;;;;;;5085083;28;20449;-72
2022/07/14 01:53:50;;;;;;;2.60;2.30;;;21.60;61.30;;;;;;5086203;28;20201;-72
2022/07/14 01:56:15;;;;;;;6.30;2.47;;;21.60;61.20;;;;;;5079832;28;20567;-72
2022/07/14 01:58:41;;;;;;;3.87;2.60;;;21.60;61.30;;;;;;5084770;28;20925;-72
2022/07/14 02:03:56;;;;;;;4.40;2.40;;;21.40;61.30;;;;;;5081236;28;20349;-73
2022/07/14 02:06:22;;;;;;;3.17;2.40;;;21.30;61.60;;;;;;5088739;28;20419;-73
2022/07/14 02:08:48;;;;;;;3.30;2.43;;;21.20;61.70;;;;;;5086297;28;20441;-73
2022/07/14 02:13:58;;;;;;;2.67;2.00;;;21.20;61.30;;;;;;5078276;28;20223;-72
2022/07/14 02:16:24;;;;;;;2.27;2.07;;;21.10;61.20;;;;;;5084439;28;20427;-73
2022/07/14 02:18:49;;;;;;;3.97;2.47;;;21.00;61.00;;;;;;5080780;28;20553;-72
2022/07/14 02:21:15;;;;;;;2.10;1.97;;;21.00;61.20;;;;;;5086011;28;20692;-72
2022/07/14 02:23:41;;;;;;;2.70;2.50;;;21.00;61.00;;;;;;5060911;28;20201;-72
2022/07/14 02:26:12;;;;;;;2.10;1.97;;;20.90;61.20;;;;;;5087136;28;20204;-72
2022/07/14 02:28:38;;;;;;;4.17;2.13;;;20.80;61.20;;;;;;5078882;28;20420;-74
2022/07/14 02:31:04;;;;;;;2.70;1.83;;;20.90;60.70;;;;;;5087306;28;20488;-71
2022/07/14 02:33:29;;;;;;;2.70;2.27;;;20.80;60.60;;;;;;5083192;28;20566;-74
2022/07/14 02:35:55;;;;;;;2.23;1.97;;;20.70;60.90;;;;;;5082974;28;20189;-73
2022/07/14 02:38:21;;;;;;;5.53;2.47;;;20.60;61.50;;;;;;5080736;28;20303;-72
2022/07/14 02:40:46;;;;;;;2.60;2.23;;;20.50;61.70;;;;;;5087152;28;20507;-73
2022/07/14 02:43:12;;;;;;;2.50;1.67;;;20.50;61.70;;;;;;5084575;28;20540;-72
2022/07/14 02:45:38;;;;;;;2.60;2.07;;;20.50;61.70;;;;;;5073741;28;20183;-74
2022/07/14 02:48:07;;;;;;;3.87;2.27;;;20.40;62.00;;;;;;5080341;28;20182;-74
2022/07/14 02:50:32;;;;;;;5.93;2.37;;;20.40;61.90;;;;;;5093146;28;20182;-72
2022/07/14 02:52:58;;;;;;;2.73;2.20;;;20.40;61.20;;;;;;5084924;28;20465;-71
2022/07/14 02:55:24;;;;;;;3.47;2.10;;;20.40;61.00;;;;;;5102364;28;20215;-71
2022/07/14 02:57:50;;;;;;;2.43;2.00;;;20.30;62.20;;;;;;5101120;28;20183;-73
2022/07/14 03:00:17;;;;;;;3.43;2.20;;;20.30;61.70;;;;;;5097261;28;20196;-73
2022/07/14 03:02:42;;;;;;;6.70;2.30;;;20.20;62.00;;;;;;5097843;28;20500;-72
2022/07/14 03:05:08;;;;;;;3.90;2.20;;;20.20;62.20;;;;;;5090316;28;20828;-73
2022/07/14 03:07:34;;;;;;;2.20;2.00;;;20.20;62.50;;;;;;5090708;28;20573;-73
2022/07/14 03:09:59;;;;;;;4.47;2.57;;;20.10;62.60;;;;;;5069092;28;20287;-74
2022/07/14 03:12:25;;;;;;;2.93;2.63;;;20.10;63.90;;;;;;5089185;28;20274;-74
2022/07/14 03:14:51;;;;;;;2.57;2.40;;;20.10;62.80;;;;;;5096757;28;20232;-74
2022/07/14 03:17:17;;;;;;;4.37;2.10;;;20.10;62.30;;;;;;5090985;28;20906;-72
2022/07/14 03:19:43;;;;;;;3.40;1.93;;;20.00;62.20;;;;;;5091946;28;20199;-73
2022/07/14 03:22:09;;;;;;;3.57;2.07;;;19.90;62.60;;;;;;5092884;28;20601;-74
2022/07/14 03:24:34;;;;;;;4.67;2.30;;;19.90;62.80;;;;;;5081687;28;20204;-73
2022/07/14 03:27:00;;;;;;;6.90;2.33;;;19.90;62.90;;;;;;5083524;28;20642;-71
2022/07/14 03:29:27;;;;;;;4.83;2.40;;;19.80;63.70;;;;;;5082345;28;20186;-73
2022/07/14 03:31:54;;;;;;;3.03;2.50;;;19.80;63.40;;;;;;5090790;28;20199;-71
2022/07/14 03:34:19;;;;;;;3.90;2.57;;;19.80;63.70;;;;;;5094936;28;20498;-72
2022/07/14 03:36:45;;;;;;;2.90;2.40;;;19.80;64.80;;;;;;5082241;28;20513;-73
2022/07/14 03:39:10;;;;;;;4.07;2.33;;;19.80;64.70;;;;;;5075078;28;20200;-73
2022/07/14 03:41:36;;;;;;;3.60;2.27;;;19.70;64.80;;;;;;5098928;28;20211;-72
2022/07/14 03:44:01;;;;;;;4.40;2.30;;;19.60;65.10;;;;;;5094056;28;20210;-74
2022/07/14 03:46:27;;;;;;;3.87;2.50;;;19.60;64.20;;;;;;5098192;28;20259;-72
2022/07/14 03:48:53;;;;;;;3.40;2.50;;;19.70;63.70;;;;;;5090304;28;20180;-73
2022/07/14 03:51:18;;;;;;;6.63;1.90;;;19.70;62.90;;;;;;5102081;28;20183;-72
2022/07/14 03:53:44;;;;;;;3.80;2.73;;;19.80;61.60;;;;;;5094546;28;20244;-72
2022/07/14 03:56:09;;;;;;;6.30;2.20;;;19.80;61.20;;;;;;5093276;28;20195;-73
2022/07/14 03:58:35;;;;;;;4.27;2.27;;;19.90;60.70;;;;;;5090226;28;20197;-73
2022/07/14 04:01:02;;;;;;;5.20;2.20;;;20.00;60.60;;;;;;5091599;28;20207;-73
2022/07/14 04:03:28;;;;;;;2.13;1.87;;;19.90;60.30;;;;;;5091064;28;20211;-73
2022/07/14 04:05:53;;;;;;;5.37;2.40;;;20.00;60.00;;;;;;5093898;28;20422;-72
2022/07/14 04:08:19;;;;;;;3.50;2.27;;;20.10;59.70;;;;;;5096555;28;20228;-73
2022/07/14 04:10:44;;;;;;;3.50;2.00;;;20.10;59.60;;;;;;5091249;28;20184;-74
2022/07/14 04:13:10;;;;;;;2.50;2.07;;;20.20;60.30;;;;;;5079569;28;20213;-73
2022/07/14 04:15:38;;;;;;;2.53;2.23;;;20.20;60.60;;;;;;5084733;28;20251;-73
2022/07/14 04:18:03;;;;;;;2.70;2.03;;;20.20;60.70;;;;;;5082597;28;20207;-74
2022/07/14 04:20:29;;;;;;;2.50;2.10;;;20.20;61.00;;;;;;5085166;28;20450;-72
2022/07/14 04:22:55;;;;;;;3.70;2.10;;;20.20;60.90;;;;;;5079399;28;20204;-71
2022/07/14 04:25:20;;;;;;;5.23;2.53;;;20.20;60.90;;;;;;5087616;28;20423;-72
2022/07/14 04:27:46;;;;;;;4.50;2.60;;;20.20;61.00;;;;;;5072140;28;20990;-75
2022/07/14 04:30:13;;;;;;;4.10;2.30;;;20.20;61.00;;;;;;5085908;28;20183;-74
2022/07/14 04:32:39;;;;;;;3.63;2.53;;;20.20;61.00;;;;;;5087029;28;20232;-73
2022/07/14 04:35:05;;;;;;;6.40;2.53;;;20.20;61.50;;;;;;5080267;28;20771;-74
2022/07/14 04:37:31;;;;;;;4.27;2.80;;;20.30;61.70;;;;;;5087216;28;20180;-72
2022/07/14 04:39:57;;;;;;;4.93;2.60;;;20.30;61.70;;;;;;5083776;28;20430;-73
2022/07/14 04:42:23;;;;;;;4.03;2.53;;;20.30;61.90;;;;;;5083034;28;20204;-72
2022/07/14 04:44:50;;;;;;;5.47;2.77;;;20.30;62.20;;;;;;5078403;28;20458;-73
2022/07/14 04:47:16;;;;;;;6.83;3.00;;;20.20;62.30;;;;;;5091477;28;20411;-73
2022/07/14 04:52:25;;;;;;;3.13;2.50;;;20.20;62.30;;;;;;5088836;28;20494;-73
2022/07/14 04:54:52;;;;;;;3.40;2.37;;;20.30;62.30;;;;;;5082690;28;20553;-73
2022/07/14 04:57:19;;;;;;;2.97;2.13;;;20.30;62.20;;;;;;5090056;28;20184;-73
2022/07/14 04:59:45;;;;;;;2.77;2.10;;;20.30;62.00;;;;;;5085440;28;20423;-73
2022/07/14 05:02:11;;;;;;;4.93;2.60;;;20.30;62.00;;;;;;5085282;28;20854;-74
2022/07/14 05:04:37;;;;;;;5.10;2.87;;;20.50;61.50;;;;;;5073045;28;20456;-72
2022/07/14 05:07:03;;;;;;;4.33;2.80;;;20.50;61.20;;;;;;5086694;28;20418;-73
2022/07/14 05:09:35;;;;;;;2.97;2.33;;;20.50;61.20;;;;;;5085932;28;20275;-74
2022/07/14 05:12:02;;;;;;;3.63;2.47;;;20.50;61.20;;;;;;5090863;28;20193;-73
2022/07/14 05:14:31;;;;;;;7.43;3.17;;;20.60;61.50;;;;;;5084626;28;20469;-73
2022/07/14 05:16:57;;;;;;;3.10;2.63;;;20.70;60.90;;;;;;5070217;28;20418;-73
2022/07/14 05:19:22;;;;;;;3.80;2.97;;;20.80;61.00;;;;;;5088992;28;20494;-74
2022/07/14 05:21:48;;;;;;;3.60;3.00;;;20.80;60.30;;;;;;5089877;28;20201;-73
2022/07/14 05:24:14;;;;;;;4.23;2.90;;;20.90;60.00;;;;;;5090571;28;20224;-74
2022/07/14 05:26:40;;;;;;;4.47;2.90;;;20.90;60.10;;;;;;5091602;28;20603;-74
2022/07/14 05:29:06;;;;;;;6.60;2.80;;;20.90;60.30;;;;;;5085342;28;20904;-73
2022/07/14 05:31:32;;;;;;;3.50;2.70;;;20.90;60.00;;;;;;5085022;28;20423;-72
2022/07/14 05:33:58;;;;;;;3.40;2.77;;;21.00;60.00;;;;;;5086920;28;20220;-75
2022/07/14 05:36:24;;;;;;;6.57;3.13;;;21.10;60.10;;;;;;5086427;28;20458;-78
2022/07/14 05:38:50;;;;;;;4.10;3.13;;;21.10;60.30;;;;;;5085345;28;20190;-75
2022/07/14 05:41:17;;;;;;;4.20;2.83;;;21.20;59.90;;;;;;5066511;28;20522;-75
2022/07/14 05:43:43;;;;;;;5.60;3.33;;;21.20;59.70;;;;;;5083023;28;20461;-75
2022/07/14 05:46:10;;;;;;;4.00;2.73;;;21.20;60.10;;;;;;5086683;28;20421;-75
2022/07/14 05:48:37;;;;;;;4.40;2.77;;;21.30;60.00;;;;;;5083198;28;20179;-77
2022/07/14 05:51:15;;;;;;;4.57;2.87;;;21.40;59.60;;;;;;5079568;28;20427;-75
2022/07/14 05:53:43;;;;;;;4.50;3.13;;;21.50;59.30;;;;;;5087356;28;20474;-78
2022/07/14 05:56:10;;;;;;;4.20;2.73;;;21.60;59.10;;;;;;5089710;28;20426;-74
2022/07/14 05:58:37;;;;;;;5.03;2.90;;;21.80;58.80;;;;;;5093199;28;20412;-75
2022/07/14 06:01:04;;;;;;;4.10;2.60;;;21.80;58.20;;;;;;5083975;28;20463;-75
2022/07/14 06:03:30;;;;;;;5.00;2.60;;;22.00;57.70;;;;;;5076678;28;21253;-77
2022/07/14 06:06:00;;;;;;;3.80;2.87;;;22.10;57.80;;;;;;5062036;28;20444;-77
2022/07/14 06:08:25;;;;;;;4.50;2.23;;;22.20;57.00;;;;;;5076609;28;20784;-78
2022/07/14 06:10:51;;;;;;;3.43;2.40;;;22.20;56.60;;;;;;5085908;28;20447;-77
2022/07/14 06:13:17;;;;;;;5.10;2.30;;;22.40;56.50;;;;;;5080412;28;20216;-75
2022/07/14 06:15:44;;;;;;;24.63;14.33;;;22.60;55.80;;;;;;5083114;28;20603;-74
2022/07/14 06:18:10;;;;;;;7.97;5.60;;;22.70;55.60;;;;;;5067679;28;20953;-76
2022/07/14 06:20:36;;;;;;;6.37;2.77;;;22.90;55.40;;;;;;5092993;28;20958;-77
2022/07/14 06:23:02;;;;;;;7.43;3.07;;;23.00;55.00;;;;;;5088478;28;20466;-75
2022/07/14 06:25:27;;;;;;;5.83;2.60;;;23.10;54.80;;;;;;5087284;28;20272;-74
2022/07/14 06:27:53;;;;;;;5.50;2.93;;;23.20;55.00;;;;;;5090595;28;20189;-76
2022/07/14 06:30:18;;;;;;;5.40;2.90;;;23.20;54.00;;;;;;5083157;28;20625;-76
2022/07/14 06:32:44;;;;;;;6.63;2.50;;;23.40;54.10;;;;;;5092537;28;20256;-77
2022/07/14 06:35:11;;;;;;;8.47;2.90;;;23.50;53.40;;;;;;5091012;28;20193;-75
2022/07/14 06:37:37;;;;;;;6.00;3.30;;;23.60;53.70;;;;;;5086369;28;20172;-76
2022/07/14 06:40:05;;;;;;;7.40;2.67;;;23.70;53.80;;;;;;5086931;28;20426;-76
2022/07/14 06:42:31;;;;;;;3.63;2.60;;;23.90;53.70;;;;;;5083255;28;20785;-77
2022/07/14 06:44:56;;;;;;;9.00;3.53;;;23.90;53.30;;;;;;5086944;28;20550;-78
2022/07/14 06:47:22;;;;;;;5.30;2.97;;;24.00;53.00;;;;;;5065304;28;20448;-75
2022/07/14 06:49:47;;;;;;;4.50;3.10;;;24.10;52.80;;;;;;5090374;28;20185;-77
2022/07/14 06:52:13;;;;;;;5.30;2.93;;;24.20;52.20;;;;;;5081259;28;20187;-75
2022/07/14 06:54:39;;;;;;;6.07;3.17;;;24.40;52.20;;;;;;5090056;28;20290;-77
2022/07/14 06:57:05;;;;;;;6.70;3.50;;;24.40;51.80;;;;;;5081304;28;20238;-77
2022/07/14 06:59:30;;;;;;;8.07;3.83;;;24.50;53.30;;;;;;5089775;28;20618;-76
2022/07/14 07:01:56;;;;;;;6.73;3.70;;;24.50;54.00;;;;;;5083647;28;20406;-78
2022/07/14 07:04:23;;;;;;;8.40;3.90;;;24.60;53.80;;;;;;5084004;28;20237;-76
2022/07/14 07:06:50;;;;;;;7.53;3.60;;;24.70;54.10;;;;;;5085235;28;20491;-75
2022/07/14 07:09:18;;;;;;;5.27;3.50;;;24.80;55.00;;;;;;5084993;28;20929;-74
2022/07/14 07:11:45;;;;;;;7.27;4.17;;;24.90;55.20;;;;;;5085823;28;20427;-75
2022/07/14 07:14:11;;;;;;;7.43;4.33;;;25.00;55.20;;;;;;5080639;28;20463;-75
2022/07/14 07:16:36;;;;;;;13.30;3.83;;;25.10;55.60;;;;;;5067950;28;20432;-76
2022/07/14 07:19:02;;;;;;;8.10;3.90;;;25.30;54.80;;;;;;5064287;28;20432;-78
2022/07/14 07:21:28;;;;;;;6.20;4.13;;;25.40;55.20;;;;;;5087670;28;20275;-76
2022/07/14 07:23:54;;;;;;;9.43;4.03;;;25.60;55.60;;;;;;5083320;28;20463;-74
2022/07/14 07:26:24;;;;;;;9.93;4.63;;;25.60;55.80;;;;;;5089146;28;20201;-77
2022/07/14 07:28:51;;;;;;;10.23;4.30;;;25.60;55.80;;;;;;5086182;28;20903;-80
2022/07/14 07:31:17;;;;;;;13.43;4.57;;;25.60;56.10;;;;;;5070040;28;21218;-76
2022/07/14 07:33:42;;;;;;;6.97;4.57;;;25.80;56.00;;;;;;5068172;28;20486;-76
2022/07/14 07:36:08;;;;;;;16.17;4.57;;;25.90;54.90;;;;;;5089061;28;20300;-74
2022/07/14 07:38:34;;;;;;;10.50;4.60;;;26.10;54.40;;;;;;5087174;28;20341;-75
2022/07/14 07:41:02;;;;;;;13.20;4.80;;;26.10;54.80;;;;;;5063347;28;20216;-76
2022/07/14 07:43:27;;;;;;;6.37;4.13;;;26.20;54.80;;;;;;5060446;28;20202;-76
2022/07/14 07:45:53;;;;;;;5.43;3.70;;;26.30;53.40;;;;;;5084878;28;20450;-76
2022/07/14 07:48:19;;;;;;;5.53;3.67;;;26.30;53.20;;;;;;5084037;28;20717;-74
2022/07/14 07:50:45;;;;;;;9.13;4.20;;;26.50;52.80;;;;;;5072114;28;20210;-74
2022/07/14 07:53:12;;;;;;;7.57;4.90;;;26.70;52.20;;;;;;5086902;28;20457;-74
2022/07/14 07:55:38;;;;;;;10.10;4.60;;;26.90;52.20;;;;;;5088289;28;20431;-74
2022/07/14 07:58:05;;;;;;;6.97;4.73;;;27.00;52.50;;;;;;5089566;28;20429;-74
2022/07/14 08:00:31;;;;;;;8.63;4.53;;;27.10;51.80;;;;;;5083333;28;20440;-74
2022/07/14 08:02:57;;;;;;;10.70;5.33;;;27.20;51.80;;;;;;5084649;28;20469;-74
2022/07/14 08:05:26;;;;;;;12.00;4.33;;;27.40;51.60;;;;;;5087575;28;20430;-73
2022/07/14 08:07:52;;;;;;;11.30;4.60;;;27.60;50.30;;;;;;5082678;28;20437;-74
2022/07/14 08:10:18;;;;;;;6.47;4.03;;;27.60;49.50;;;;;;5082931;28;20440;-73
2022/07/14 08:12:44;;;;;;;11.07;4.10;;;27.70;47.10;;;;;;5082318;28;20421;-72
2022/07/14 08:15:10;;;;;;;4.97;3.50;;;27.80;46.50;;;;;;5086458;28;20459;-72
2022/07/14 08:17:36;;;;;;;11.73;3.80;;;28.00;45.00;;;;;;5084919;28;20425;-72
2022/07/14 08:20:03;;;;;;;4.30;3.10;;;28.10;44.70;;;;;;5084764;28;20436;-72
2022/07/14 08:22:29;;;;;;;7.00;4.10;;;28.30;40.60;;;;;;5089036;28;20490;-73
2022/07/14 08:24:56;;;;;;;7.60;3.90;;;28.40;44.90;;;;;;5083587;28;20833;-72
2022/07/14 08:27:22;;;;;;;7.60;3.30;;;28.30;44.20;;;;;;5086500;28;20197;-73
2022/07/14 08:29:49;;;;;;;7.20;4.20;;;28.20;42.60;;;;;;5082908;28;20511;-73
2022/07/14 08:32:14;;;;;;;7.00;3.57;;;28.30;42.80;;;;;;5087756;28;20531;-72
2022/07/14 08:34:40;;;;;;;4.57;3.50;;;28.30;42.20;;;;;;5088613;28;21101;-73
2022/07/14 08:37:06;;;;;;;7.47;3.57;;;28.40;42.00;;;;;;5080804;28;20183;-72
2022/07/14 08:39:33;;;;;;;5.57;2.87;;;28.50;41.20;;;;;;5083765;28;20194;-73
2022/07/14 08:42:02;;;;;;;6.53;3.10;;;28.60;40.20;;;;;;5070636;28;20491;-73
2022/07/14 08:44:29;;;;;;;7.83;3.23;;;28.70;40.80;;;;;;5076906;28;20825;-73
2022/07/14 08:46:55;;;;;;;5.67;3.17;;;28.80;39.90;;;;;;5074324;28;20433;-73
2022/07/14 08:49:22;;;;;;;7.20;2.90;;;28.90;39.40;;;;;;5084146;28;20579;-73
2022/07/14 08:51:49;;;;;;;5.70;2.80;;;29.00;37.40;;;;;;5075699;28;21222;-74
2022/07/14 08:54:15;;;;;;;3.97;2.60;;;29.30;36.20;;;;;;5084095;28;21074;-74
2022/07/14 08:56:42;;;;;;;4.67;3.07;;;29.40;36.30;;;;;;5077665;28;20434;-74
2022/07/14 08:59:08;;;;;;;3.93;2.70;;;29.50;36.60;;;;;;5082546;28;20511;-76
2022/07/14 09:01:35;;;;;;;4.80;2.60;;;29.60;35.30;;;;;;5079306;28;20473;-74
2022/07/14 09:04:01;;;;;;;12.43;2.77;;;29.70;35.50;;;;;;5059996;28;20472;-72
2022/07/14 09:06:50;;;;;;;8.23;2.90;;;29.70;34.50;;;;;;5078075;28;20430;-72
2022/07/14 09:09:17;;;;;;;6.87;3.20;;;29.80;34.90;;;;;;5079674;28;20425;-72
2022/07/14 09:12:10;;;;;;;5.40;2.73;;;29.80;35.50;;;;;;5080208;28;20442;-73
2022/07/14 09:17:25;;;;;;;4.17;3.10;;;29.90;35.10;;;;;;5079301;28;20850;-72
2022/07/14 09:20:06;;;;;;;5.50;2.70;;;29.90;35.10;;;;;;5089311;28;20477;-74
2022/07/14 09:22:34;;;;;;;5.30;3.17;;;30.00;35.20;;;;;;5075695;28;20557;-72
2022/07/14 09:25:03;;;;;;;3.03;2.60;;;30.10;34.80;;;;;;5081957;28;20457;-73
2022/07/14 09:27:29;;;;;;;5.40;2.77;;;30.30;33.70;;;;;;5082148;28;20425;-72
2022/07/14 09:29:55;;;;;;;3.90;2.80;;;30.40;33.50;;;;;;5084390;28;20449;-73
2022/07/14 09:32:42;;;;;;;5.67;2.93;;;30.40;33.50;;;;;;5081519;28;20433;-72
2022/07/14 09:35:09;;;;;;;7.07;3.10;;;30.50;33.60;;;;;;5074065;28;20501;-71
2022/07/14 09:37:38;;;;;;;3.20;2.70;;;30.50;33.60;;;;;;5083038;28;20482;-72
2022/07/14 09:40:05;;;;;;;4.83;3.10;;;30.70;33.20;;;;;;5083851;28;20426;-72
2022/07/14 09:42:50;;;;;;;4.40;2.90;;;30.80;32.80;;;;;;5078832;28;20920;-72
2022/07/14 09:45:18;;;;;;;4.57;3.23;;;30.90;31.90;;;;;;5082916;28;20417;-71
2022/07/14 09:48:10;;;;;;;3.17;2.67;;;31.00;32.50;;;;;;5079208;28;20417;-74
2022/07/14 09:50:39;;;;;;;5.50;3.20;;;31.00;31.90;;;;;;5071921;28;20429;-72
2022/07/14 09:53:14;;;;;;;6.00;2.73;;;31.20;31.50;;;;;;5080678;28;20499;-73
2022/07/14 09:56:01;;;;;;;6.07;3.00;;;31.40;30.90;;;;;;5076935;28;20424;-73
2022/07/14 09:58:56;;;;;;;4.00;2.53;;;31.30;31.10;;;;;;5088978;28;20434;-73
2022/07/14 10:01:24;;;;;;;7.73;2.87;;;31.20;31.10;;;;;;5084373;28;20597;-73
2022/07/14 10:03:54;;;;;;;4.40;2.77;;;31.40;31.10;;;;;;5092306;28;20457;-73
2022/07/14 10:06:21;;;;;;;3.60;2.80;;;31.60;29.90;;;;;;5073140;28;20783;-73
2022/07/14 10:08:53;;;;;;;8.80;3.20;;;31.60;29.80;;;;;;5076474;28;20410;-73
2022/07/14 10:11:20;;;;;;;4.87;3.03;;;31.60;30.10;;;;;;5078133;28;20421;-72
2022/07/14 10:13:46;;;;;;;4.30;2.83;;;31.30;30.30;;;;;;5082969;28;20520;-73
2022/07/14 10:16:14;;;;;;;5.27;3.00;;;31.50;30.30;;;;;;5080546;28;20979;-73
2022/07/14 10:18:42;;;;;;;4.20;2.70;;;31.90;29.40;;;;;;5080257;28;20430;-73
2022/07/14 10:21:10;;;;;;;4.60;2.90;;;32.20;29.10;;;;;;5084295;28;20488;-73
2022/07/14 10:23:37;;;;;;;7.80;2.87;;;32.50;28.60;;;;;;5081412;28;20490;-73
2022/07/14 10:26:05;;;;;;;3.33;2.93;;;32.60;28.70;;;;;;5086732;28;20424;-73
2022/07/14 10:28:31;;;;;;;5.07;2.70;;;32.80;28.30;;;;;;5082544;28;20437;-74
2022/07/14 10:31:23;;;;;;;3.77;2.90;;;32.90;28.50;;;;;;5087574;28;20512;-74
2022/07/14 10:34:28;;;;;;;5.30;3.27;;;32.80;28.10;;;;;;5087468;28;20211;-72
2022/07/14 10:36:59;;;;;;;6.13;3.37;;;32.90;28.20;;;;;;5079141;28;20773;-73
2022/07/14 10:39:45;;;;;;;5.43;3.10;;;33.10;28.20;;;;;;5079452;28;20429;-72
2022/07/14 10:42:50;;;;;;;6.03;3.20;;;32.60;28.30;;;;;;5070239;28;20461;-73
2022/07/14 10:45:16;;;;;;;3.47;2.53;;;32.70;28.60;;;;;;5081217;28;20901;-74
2022/07/14 10:47:53;;;;;;;4.37;3.10;;;33.30;27.40;;;;;;5078962;28;20941;-72
2022/07/14 10:50:20;;;;;;;5.40;2.90;;;33.90;26.60;;;;;;5082919;28;20270;-74
2022/07/14 10:53:05;;;;;;;4.70;2.77;;;33.80;26.10;;;;;;5085866;28;20448;-74
2022/07/14 10:55:30;;;;;;;3.73;2.70;;;33.80;26.40;;;;;;5075293;28;20433;-74
2022/07/14 10:57:59;;;;;;;3.80;2.83;;;33.90;26.30;;;;;;5081327;28;20535;-74
2022/07/14 11:00:55;;;;;;;3.07;2.83;;;34.10;25.80;;;;;;5074664;28;20275;-74
2022/07/14 11:03:27;;;;;;;4.53;3.20;;;34.00;26.00;;;;;;5074974;28;20462;-75
2022/07/14 11:06:08;;;;;;;2.70;2.50;;;33.80;26.00;;;;;;5082826;28;20417;-74
2022/07/14 11:08:40;;;;;;;3.17;2.20;;;34.10;26.00;;;;;;5075337;28;20825;-76
2022/07/14 11:11:18;;;;;;;5.50;2.40;;;34.40;25.30;;;;;;5064786;28;20424;-74
2022/07/14 11:14:06;;;;;;;4.30;2.80;;;34.70;25.30;;;;;;5094034;28;20456;-73
2022/07/14 11:16:47;;;;;;;7.40;2.87;;;35.00;25.10;;;;;;5072221;28;20417;-73
2022/07/14 11:19:35;;;;;;;4.27;3.13;;;34.20;25.60;;;;;;5074359;28;20432;-75
2022/07/14 11:22:21;;;;;;;4.37;3.33;;;33.90;25.90;;;;;;5084772;28;20830;-74
2022/07/14 11:25:00;;;;;;;4.53;3.00;;;34.30;25.70;;;;;;5088568;28;20521;-75
2022/07/14 11:27:48;;;;;;;12.53;3.17;;;34.30;25.50;;;;;;5089989;28;20410;-75
2022/07/14 11:30:29;;;;;;;11.13;3.80;;;34.40;25.90;;;;;;5087571;28;20413;-74
2022/07/14 11:32:59;;;;;;;3.50;3.00;;;34.50;25.60;;;;;;5091917;28;21045;-74
2022/07/14 11:36:19;;;;;;;3.83;3.03;;;34.40;25.50;;;;;;5081662;28;20414;-74
2022/07/14 11:38:46;;;;;;;12.90;3.17;;;34.40;25.80;;;;;;5003357;28;20817;-72
2022/07/14 11:41:13;;;;;;;6.50;3.83;;;34.40;26.60;;;;;;4993889;28;20476;-74
2022/07/14 11:43:44;;;;;;;13.23;3.83;;;34.60;26.50;;;;;;4997615;28;20531;-74
2022/07/14 11:46:15;;;;;;;6.13;3.23;;;34.00;26.80;;;;;;4988296;28;20434;-73
2022/07/14 11:48:50;;;;;;;4.47;2.90;;;33.60;27.30;;;;;;4996411;28;20521;-74
2022/07/14 11:51:23;;;;;;;10.17;3.90;;;33.80;27.30;;;;;;4992775;28;20421;-72
2022/07/14 11:54:16;;;;;;;9.47;3.37;;;34.10;27.40;;;;;;4993559;28;20671;-73
2022/07/14 11:56:41;;;;;;;8.60;3.20;;;34.40;27.30;;;;;;4988931;28;20446;-73
2022/07/14 11:59:09;;;;;;;5.90;3.53;;;34.50;26.80;;;;;;4999035;28;20429;-73
2022/07/14 12:01:38;;;;;;;4.80;3.90;;;34.70;26.90;;;;;;4989269;28;20211;-73
2022/07/14 12:04:12;;;;;;;8.53;3.20;;;34.80;26.90;;;;;;4993293;28;20491;-73
2022/07/14 12:06:40;;;;;;;6.63;3.23;;;34.50;27.20;;;;;;5001086;28;20422;-74
2022/07/14 12:09:06;;;;;;;7.00;3.37;;;34.80;27.00;;;;;;4980219;28;20459;-73
2022/07/14 12:11:34;;;;;;;4.33;3.40;;;34.30;27.80;;;;;;5013165;28;20753;-74
2022/07/14 12:13:59;;;;;;;4.67;3.50;;;33.70;28.70;;;;;;5089426;28;20771;-73
2022/07/14 12:16:25;;;;;;;14.07;3.10;;;33.90;28.70;;;;;;5084179;28;20188;-75
2022/07/14 12:18:52;;;;;;;4.70;3.30;;;34.20;28.40;;;;;;5093267;28;20191;-74
2022/07/14 12:21:31;;;;;;;5.93;3.40;;;34.60;27.70;;;;;;5077309;28;20287;-75
2022/07/14 12:23:57;;;;;;;7.40;3.60;;;34.50;27.30;;;;;;5076530;28;20460;-73
2022/07/14 12:26:25;;;;;;;5.10;3.33;;;34.40;27.50;;;;;;5086217;28;20443;-73
2022/07/14 12:28:52;;;;;;;8.83;3.50;;;34.60;26.80;;;;;;5086894;28;20421;-73
2022/07/14 12:31:19;;;;;;;5.77;3.60;;;34.40;26.90;;;;;;5070603;28;20491;-74
2022/07/14 12:33:46;;;;;;;3.77;2.97;;;34.60;26.70;;;;;;5085559;28;20536;-73
2022/07/14 12:36:19;;;;;;;10.47;3.57;;;34.50;27.00;;;;;;5090847;28;20414;-73
2022/07/14 12:38:46;;;;;;;6.87;3.50;;;35.00;26.30;;;;;;5092328;28;20430;-73
2022/07/14 12:41:14;;;;;;;8.17;3.17;;;35.40;25.20;;;;;;5091616;28;20469;-73
2022/07/14 12:43:44;;;;;;;5.43;3.13;;;35.20;25.60;;;;;;5099493;28;20453;-73
2022/07/14 12:46:11;;;;;;;5.93;2.93;;;35.30;25.50;;;;;;5092394;28;20426;-73
2022/07/14 12:48:58;;;;;;;6.67;3.37;;;35.20;25.80;;;;;;5073373;28;21064;-73
2022/07/14 12:51:28;;;;;;;7.97;2.60;;;34.90;25.90;;;;;;5072106;28;20440;-72
2022/07/14 12:54:10;;;;;;;5.50;2.93;;;34.00;26.30;;;;;;5058087;28;20457;-73
2022/07/14 12:56:41;;;;;;;6.37;2.50;;;33.60;26.10;;;;;;5087917;28;20424;-73
2022/07/14 12:59:10;;;;;;;4.13;2.53;;;33.10;26.50;;;;;;5081935;28;20758;-71
2022/07/14 13:01:57;;;;;;;5.37;2.73;;;33.40;27.00;;;;;;5089184;28;21037;-74
2022/07/14 13:04:44;;;;;;;4.37;2.67;;;33.60;27.10;;;;;;5078054;28;20603;-74